createdAt,value
2022-12-16T00:00:09.836Z,98107.73
2022-12-16T00:01:32.265Z,98107.28
2022-12-16T00:02:34.704Z,98112.66
2022-12-16T00:03:37.877Z,98115.56
2022-12-16T00:04:39.760Z,98112.81
2022-12-16T00:05:44.517Z,98110.15
2022-12-16T00:06:46.730Z,98108.93
2022-12-16T00:07:49.066Z,98110.52
2022-12-16T00:08:51.796Z,98112.05
2022-12-16T00:09:53.939Z,98109.27
2022-12-16T00:11:01.244Z,98108.03
2022-12-16T00:12:10.726Z,98102.77
2022-12-16T00:13:19.428Z,98106.42
2022-12-16T00:14:21.926Z,98111.88
2022-12-16T00:15:24.590Z,98115.52
2022-12-16T00:16:29.464Z,98117.48
2022-12-16T00:17:31.319Z,98107.74
2022-12-16T00:18:37.008Z,98108.92
2022-12-16T00:19:39.062Z,98113.98
2022-12-16T00:20:49.522Z,98111.14
2022-12-16T00:21:53.993Z,98107.32
2022-12-16T00:22:56.734Z,98104.55
2022-12-16T00:23:58.996Z,98106.02
2022-12-16T00:25:00.843Z,98109.25
2022-12-16T00:26:03.126Z,98112.33
2022-12-16T00:27:04.970Z,98110.88
2022-12-16T00:28:06.968Z,98110.80
2022-12-16T00:29:11.142Z,98109.02
2022-12-16T00:30:13.604Z,98105.80
2022-12-16T00:31:16.445Z,98100.52
2022-12-16T00:32:18.658Z,98098.59
2022-12-16T00:33:22.543Z,98100.71
2022-12-16T00:34:24.485Z,98099.72
2022-12-16T00:35:26.322Z,98097.59
2022-12-16T00:36:28.348Z,98099.32
2022-12-16T00:37:30.469Z,98097.01
2022-12-16T00:38:32.747Z,98097.63
2022-12-16T00:39:34.702Z,98100.36
2022-12-16T00:40:37.169Z,98104.20
2022-12-16T00:41:39.434Z,98104.05
2022-12-16T00:42:41.254Z,98103.84
2022-12-16T00:43:43.343Z,98105.23
2022-12-16T00:44:45.572Z,98104.98
2022-12-16T00:45:48.780Z,98106.64
2022-12-16T00:46:50.727Z,98109.27
2022-12-16T00:47:52.796Z,98107.50
2022-12-16T00:48:55.026Z,98108.17
2022-12-16T00:49:57.155Z,98109.09
2022-12-16T00:50:59.089Z,98107.81
2022-12-16T00:52:00.985Z,98106.60
2022-12-16T00:53:04.648Z,98103.37
2022-12-16T00:54:06.610Z,98105.70
2022-12-16T00:55:08.993Z,98104.69
2022-12-16T00:56:14.773Z,98106.35
2022-12-16T00:58:38.072Z,98105.99
2022-12-16T01:00:18.379Z,98110.21
2022-12-16T01:01:20.651Z,98110.48
2022-12-16T01:02:22.657Z,98109.48
2022-12-16T01:04:58.176Z,98096.31
2022-12-16T01:08:31.798Z,98091.52
2022-12-16T01:09:33.303Z,98090.19
2022-12-16T01:10:34.031Z,98083.98
2022-12-16T01:11:35.932Z,98085.39
2022-12-16T01:12:37.367Z,98081.55
2022-12-16T01:13:38.371Z,98082.59
2022-12-16T01:14:39.210Z,98080.90
2022-12-16T01:15:40.001Z,98081.71
2022-12-16T01:16:40.424Z,98078.50
2022-12-16T01:17:41.265Z,98069.10
2022-12-16T01:18:41.783Z,98076.21
2022-12-16T01:19:42.184Z,98071.49
2022-12-16T01:20:42.692Z,98071.56
2022-12-16T01:21:43.297Z,98067.44
2022-12-16T01:22:43.680Z,98068.96
2022-12-16T01:23:44.296Z,98066.77
2022-12-16T01:24:44.685Z,98069.27
2022-12-16T01:25:45.196Z,98066.79
2022-12-16T01:26:45.525Z,98070.06
2022-12-16T01:27:46.177Z,98071.16
2022-12-16T01:28:50.017Z,98069.02
2022-12-16T01:29:50.783Z,98069.09
2022-12-16T01:30:56.881Z,98073.35
2022-12-16T01:31:57.332Z,98072.71
2022-12-16T01:32:57.746Z,98072.39
2022-12-16T01:33:58.106Z,98071.45
2022-12-16T01:34:58.470Z,98072.25
2022-12-16T01:36:07.607Z,98072.09
2022-12-16T01:37:12.185Z,98069.61
2022-12-16T01:38:12.555Z,98072.56
2022-12-16T01:39:13.101Z,98072.73
2022-12-16T01:40:20.632Z,98073.55
2022-12-16T01:41:21.313Z,98071.88
2022-12-16T01:42:22.529Z,98070.02
2022-12-16T01:43:32.698Z,98063.65
2022-12-16T01:44:33.906Z,98064.55
2022-12-16T01:45:35.904Z,98069.09
2022-12-16T01:46:38.184Z,98071.44
2022-12-16T01:47:39.070Z,98073.50
2022-12-16T01:49:03.303Z,98080.64
2022-12-16T01:50:14.366Z,98084.57
2022-12-16T01:51:34.828Z,98084.56
2022-12-16T01:52:44.439Z,98080.59
2022-12-16T01:53:52.092Z,98079.12
2022-12-16T01:55:02.188Z,98081.20
2022-12-16T01:56:03.674Z,98081.98
2022-12-16T01:57:12.225Z,98085.31
2022-12-16T01:58:23.426Z,98084.36
2022-12-16T01:59:29.867Z,98079.57
2022-12-16T02:00:30.495Z,98075.23
2022-12-16T02:01:31.470Z,98075.68
2022-12-16T02:02:33.873Z,98070.52
2022-12-16T02:03:36.942Z,98068.31
2022-12-16T02:04:58.119Z,98069.67
2022-12-16T02:05:59.996Z,98068.14
2022-12-16T02:07:01.363Z,98067.90
2022-12-16T02:08:15.991Z,98066.11
2022-12-16T02:09:17.492Z,98061.76
2022-12-16T02:10:28.573Z,98055.91
2022-12-16T02:11:56.630Z,98054.48
2022-12-16T02:13:18.503Z,98057.55
2022-12-16T02:14:34.950Z,98059.32
2022-12-16T02:16:16.966Z,98056.23
2022-12-16T02:17:40.539Z,98052.05
2022-12-16T02:19:22.723Z,98044.79
2022-12-16T02:21:05.247Z,98038.48
2022-12-16T02:22:14.480Z,98031.80
2022-12-16T02:23:54.105Z,98031.73
2022-12-16T02:25:31.346Z,98032.41
2022-12-16T02:27:10.105Z,98036.70
2022-12-16T02:29:02.191Z,98029.10
2022-12-16T02:30:10.065Z,98027.11
2022-12-16T02:31:20.515Z,98020.32
2022-12-16T02:32:28.464Z,98024.50
2022-12-16T02:33:38.152Z,98022.23
2022-12-16T02:35:09.941Z,98024.02
2022-12-16T02:36:35.539Z,98021.92
2022-12-16T02:37:44.353Z,98019.34
2022-12-16T02:38:56.519Z,98018.98
2022-12-16T02:40:04.901Z,98019.34
2022-12-16T02:41:20.993Z,98013.08
2022-12-16T02:42:44.112Z,98016.77
2022-12-16T02:44:05.859Z,98014.33
2022-12-16T02:45:17.339Z,98012.61
2022-12-16T02:46:23.592Z,98014.06
2022-12-16T02:47:24.290Z,98016.60
2022-12-16T02:48:24.703Z,98016.05
2022-12-16T02:49:25.066Z,98015.85
2022-12-16T02:50:32.904Z,98017.95
2022-12-16T02:51:38.198Z,98020.38
2022-12-16T02:52:39.253Z,98023.98
2022-12-16T02:53:43.576Z,98022.41
2022-12-16T02:54:46.175Z,98016.96
2022-12-16T02:56:17.827Z,98015.83
2022-12-16T02:57:56.877Z,98015.86
2022-12-16T02:59:18.285Z,98008.66
2022-12-16T03:00:22.719Z,98007.16
2022-12-16T03:01:32.468Z,98004.41
2022-12-16T03:02:48.938Z,98001.59
2022-12-16T03:04:10.397Z,97999.35
2022-12-16T03:05:22.255Z,97994.45
2022-12-16T03:06:28.031Z,97989.80
2022-12-16T03:07:36.506Z,97990.29
2022-12-16T03:08:43.803Z,97991.33
2022-12-16T03:09:48.535Z,97988.38
2022-12-16T03:11:02.229Z,97984.93
2022-12-16T03:12:09.984Z,97984.62
2022-12-16T03:13:14.105Z,97984.63
2022-12-16T03:14:20.140Z,97982.14
2022-12-16T03:15:25.556Z,97976.14
2022-12-16T03:16:31.898Z,97972.13
2022-12-16T03:17:36.788Z,97971.02
2022-12-16T03:18:43.682Z,97966.59
2022-12-16T03:19:54.453Z,97966.09
2022-12-16T03:21:01.308Z,97963.55
2022-12-16T03:22:28.915Z,97960.73
2022-12-16T03:23:57.653Z,97954.48
2022-12-16T03:24:58.932Z,97957.16
2022-12-16T03:26:09.554Z,97954.80
2022-12-16T03:27:22.569Z,97949.24
2022-12-16T03:28:50.338Z,97952.64
2022-12-16T03:30:19.498Z,97957.88
2022-12-16T03:31:34.407Z,97958.40
2022-12-16T03:33:05.459Z,97952.38
2022-12-16T03:34:39.893Z,97953.61
2022-12-16T03:35:49.498Z,97950.88
2022-12-16T03:36:55.982Z,97947.35
2022-12-16T03:37:59.312Z,97946.02
2022-12-16T03:39:03.745Z,97944.72
2022-12-16T03:40:08.940Z,97940.90
2022-12-16T03:41:11.539Z,97942.25
2022-12-16T03:42:15.407Z,97937.10
2022-12-16T03:43:16.681Z,97933.98
2022-12-16T03:44:19.298Z,97933.40
2022-12-16T03:45:25.826Z,97934.09
2022-12-16T03:46:26.844Z,97935.27
2022-12-16T03:47:28.653Z,97939.65
2022-12-16T03:48:30.396Z,97938.64
2022-12-16T03:49:30.884Z,97935.16
2022-12-16T03:50:34.398Z,97934.51
2022-12-16T03:51:34.789Z,97931.81
2022-12-16T03:52:35.611Z,97934.54
2022-12-16T03:53:36.285Z,97936.05
2022-12-16T03:54:36.780Z,97938.41
2022-12-16T03:55:37.317Z,97938.20
2022-12-16T03:56:37.949Z,97939.36
2022-12-16T03:57:44.940Z,97939.81
2022-12-16T03:58:46.371Z,97946.75
2022-12-16T03:59:46.847Z,97944.36
2022-12-16T04:00:47.402Z,97944.09
2022-12-16T04:01:48.073Z,97944.99
2022-12-16T04:02:49.307Z,97941.64
2022-12-16T04:03:50.311Z,97934.20
2022-12-16T04:04:50.709Z,97930.63
2022-12-16T04:05:51.220Z,97931.09
2022-12-16T04:07:11.905Z,97935.15
2022-12-16T04:08:12.362Z,97934.38
2022-12-16T04:09:12.743Z,97935.50
2022-12-16T04:10:13.282Z,97933.45
2022-12-16T04:11:33.620Z,97937.61
2022-12-16T04:12:52.921Z,97943.96
2022-12-16T04:14:12.331Z,97945.69
2022-12-16T04:15:32.039Z,97948.22
2022-12-16T04:16:51.686Z,97946.35
2022-12-16T04:18:11.451Z,97947.40
2022-12-16T04:19:40.658Z,97948.73
2022-12-16T04:21:08.402Z,97947.42
2022-12-16T04:22:33.341Z,97945.96
2022-12-16T04:23:55.933Z,97946.71
2022-12-16T04:24:59.576Z,97942.95
2022-12-16T04:26:00.134Z,97943.15
2022-12-16T04:27:19.624Z,97938.96
2022-12-16T04:28:20.001Z,97938.11
2022-12-16T04:29:20.750Z,97932.67
2022-12-16T04:30:21.497Z,97930.73
2022-12-16T04:31:22.109Z,97929.02
2022-12-16T04:32:23.043Z,97921.72
2022-12-16T04:33:43.076Z,97924.48
2022-12-16T04:34:43.722Z,97923.58
2022-12-16T04:36:04.308Z,97917.21
2022-12-16T04:37:23.694Z,97918.62
2022-12-16T04:38:42.873Z,97918.94
2022-12-16T04:40:03.702Z,97916.61
2022-12-16T04:41:23.414Z,97913.48
2022-12-16T04:42:42.831Z,97912.96
2022-12-16T04:44:02.332Z,97918.42
2022-12-16T04:45:22.057Z,97914.50
2022-12-16T04:46:41.287Z,97920.14
2022-12-16T04:48:00.512Z,97919.13
2022-12-16T04:49:19.870Z,97918.06
2022-12-16T04:50:39.095Z,97915.48
2022-12-16T04:51:58.998Z,97912.13
2022-12-16T04:53:18.362Z,97915.17
2022-12-16T04:54:37.349Z,97912.71
2022-12-16T04:56:03.581Z,97913.86
2022-12-16T04:57:23.673Z,97912.06
2022-12-16T04:58:42.850Z,97910.86
2022-12-16T05:00:03.408Z,97904.19
2022-12-16T05:01:23.114Z,97907.73
2022-12-16T05:02:42.418Z,97905.42
2022-12-16T05:04:01.857Z,97902.64
2022-12-16T05:05:21.223Z,97903.46
2022-12-16T05:06:40.884Z,97904.08
2022-12-16T05:08:00.387Z,97909.63
2022-12-16T05:09:20.626Z,97906.73
2022-12-16T05:10:39.865Z,97907.55
2022-12-16T05:11:59.553Z,97905.02
2022-12-16T05:13:18.921Z,97902.98
2022-12-16T05:14:37.995Z,97903.44
2022-12-16T05:15:58.560Z,97903.30
2022-12-16T05:17:18.071Z,97907.70
2022-12-16T05:18:37.480Z,97907.10
2022-12-16T05:19:56.581Z,97907.17
2022-12-16T05:21:17.173Z,97908.02
2022-12-16T05:22:36.016Z,97904.02
2022-12-16T05:23:55.328Z,97902.48
2022-12-16T05:25:14.879Z,97900.30
2022-12-16T05:26:34.467Z,97897.43
2022-12-16T05:27:53.765Z,97901.89
2022-12-16T05:29:13.297Z,97907.20
2022-12-16T05:30:33.973Z,97907.83
2022-12-16T05:31:53.596Z,97913.22
2022-12-16T05:33:13.080Z,97912.66
2022-12-16T05:34:32.271Z,97919.32
2022-12-16T05:35:51.497Z,97923.81
2022-12-16T05:37:11.269Z,97929.00
2022-12-16T05:38:30.131Z,97927.55
2022-12-16T05:39:49.374Z,97936.61
2022-12-16T05:41:08.634Z,97937.77
2022-12-16T05:42:27.728Z,97938.20
2022-12-16T05:43:47.134Z,97940.23
2022-12-16T05:45:06.591Z,97942.89
2022-12-16T05:46:26.248Z,97942.48
2022-12-16T05:47:46.593Z,97946.55
2022-12-16T05:49:06.066Z,97941.27
2022-12-16T05:50:25.873Z,97937.96
2022-12-16T05:51:51.105Z,97936.53
2022-12-16T05:53:13.271Z,97938.16
2022-12-16T05:54:32.044Z,97935.38
2022-12-16T05:56:22.664Z,97934.20
2022-12-16T05:57:42.060Z,97928.02
2022-12-16T05:59:01.281Z,97929.18
2022-12-16T06:00:20.771Z,97932.48
2022-12-16T06:01:41.107Z,97936.83
2022-12-16T06:03:00.598Z,97936.85
2022-12-16T06:04:20.108Z,97933.66
2022-12-16T06:05:39.305Z,97936.91
2022-12-16T06:06:59.097Z,97935.73
2022-12-16T06:08:18.396Z,97933.18
2022-12-16T06:09:38.097Z,97935.42
2022-12-16T06:10:57.531Z,97933.23
2022-12-16T06:12:16.617Z,97928.34
2022-12-16T06:13:35.564Z,97927.88
2022-12-16T06:14:55.324Z,97927.30
2022-12-16T06:16:14.737Z,97929.23
2022-12-16T06:17:33.830Z,97932.27
2022-12-16T06:18:52.952Z,97937.26
2022-12-16T06:20:12.615Z,97939.79
2022-12-16T06:21:31.701Z,97943.36
2022-12-16T06:22:51.734Z,97944.48
2022-12-16T06:24:12.019Z,97946.50
2022-12-16T06:25:31.368Z,97946.98
2022-12-16T06:26:50.844Z,97948.73
2022-12-16T06:28:11.329Z,97950.62
2022-12-16T06:29:30.762Z,97951.42
2022-12-16T06:30:49.960Z,97953.16
2022-12-16T06:32:09.859Z,97957.20
2022-12-16T06:33:29.246Z,97965.42
2022-12-16T06:34:48.521Z,97966.80
2022-12-16T06:36:07.781Z,97968.53
2022-12-16T06:37:27.070Z,97963.60
2022-12-16T06:38:46.361Z,97955.67
2022-12-16T06:40:05.675Z,97956.69
2022-12-16T06:41:25.233Z,97951.25
2022-12-16T06:42:44.321Z,97951.39
2022-12-16T06:44:03.461Z,97947.08
2022-12-16T06:45:23.895Z,97948.64
2022-12-16T06:46:43.297Z,97950.38
2022-12-16T06:48:02.578Z,97951.60
2022-12-16T06:49:21.925Z,97955.92
2022-12-16T06:50:44.806Z,97960.05
2022-12-16T06:52:04.377Z,97961.11
2022-12-16T06:53:23.696Z,97961.19
2022-12-16T06:54:42.920Z,97962.30
2022-12-16T06:56:01.914Z,97962.70
2022-12-16T06:57:56.104Z,97965.36
2022-12-16T06:59:53.815Z,97967.44
2022-12-16T07:01:13.709Z,97970.34
2022-12-16T07:02:32.864Z,97967.98
2022-12-16T07:03:52.192Z,97968.06
2022-12-16T07:05:11.455Z,97971.17
2022-12-16T07:06:30.938Z,97974.16
2022-12-16T07:07:50.324Z,97976.01
2022-12-16T07:09:09.504Z,97973.42
2022-12-16T07:10:28.868Z,97972.27
2022-12-16T07:11:48.289Z,97968.68
2022-12-16T07:13:07.319Z,97966.84
2022-12-16T07:14:52.673Z,97968.25
2022-12-16T07:16:12.746Z,97968.87
2022-12-16T07:17:31.619Z,97970.70
2022-12-16T07:18:51.217Z,97969.43
2022-12-16T07:20:10.980Z,97973.73
2022-12-16T07:21:30.112Z,97973.83
2022-12-16T07:22:54.250Z,97977.08
2022-12-16T07:24:21.829Z,97979.61
2022-12-16T07:26:03.674Z,97980.98
2022-12-16T07:27:23.545Z,97977.18
2022-12-16T07:28:43.330Z,97978.57
2022-12-16T07:30:02.942Z,97974.46
2022-12-16T07:31:22.911Z,97969.11
2022-12-16T07:32:42.638Z,97968.92
2022-12-16T07:34:01.990Z,97970.30
2022-12-16T07:35:21.731Z,97969.08
2022-12-16T07:36:40.943Z,97967.05
2022-12-16T07:38:00.181Z,97961.63
2022-12-16T07:39:19.505Z,97957.36
2022-12-16T07:40:38.690Z,97952.65
2022-12-16T07:41:58.250Z,97955.50
2022-12-16T07:43:17.819Z,97951.45
2022-12-16T07:44:36.666Z,97954.52
2022-12-16T07:45:56.267Z,97958.91
2022-12-16T07:47:15.596Z,97966.73
2022-12-16T07:48:34.851Z,97965.63
2022-12-16T07:49:55.461Z,97969.11
2022-12-16T07:51:14.930Z,97966.36
2022-12-16T07:52:34.138Z,97963.35
2022-12-16T07:53:53.359Z,97966.39
2022-12-16T07:55:12.642Z,97961.27
2022-12-16T07:56:32.901Z,97962.86
2022-12-16T07:57:52.333Z,97962.05
2022-12-16T07:59:12.738Z,97958.64
2022-12-16T08:00:32.105Z,97958.48
2022-12-16T08:01:51.606Z,97957.36
2022-12-16T08:03:13.027Z,97954.55
2022-12-16T08:04:32.670Z,97951.86
2022-12-16T08:05:52.222Z,97953.45
2022-12-16T08:07:11.918Z,97949.77
2022-12-16T08:08:31.389Z,97948.59
2022-12-16T08:09:50.809Z,97947.67
2022-12-16T08:11:10.259Z,97942.11
2022-12-16T08:12:29.562Z,97943.05
2022-12-16T08:13:49.151Z,97941.08
2022-12-16T08:15:08.620Z,97938.99
2022-12-16T08:16:28.283Z,97933.33
2022-12-16T08:17:47.857Z,97929.93
2022-12-16T08:19:11.011Z,97931.03
2022-12-16T08:20:31.167Z,97933.15
2022-12-16T08:21:50.628Z,97933.19
2022-12-16T08:23:09.800Z,97928.88
2022-12-16T08:24:29.187Z,97928.45
2022-12-16T08:25:48.450Z,97922.86
2022-12-16T08:27:07.753Z,97918.75
2022-12-16T08:28:27.539Z,97918.21
2022-12-16T08:29:46.854Z,97920.86
2022-12-16T08:31:09.696Z,97922.61
2022-12-16T08:32:29.479Z,97922.98
2022-12-16T08:33:48.807Z,97923.03
2022-12-16T08:35:07.902Z,97923.84
2022-12-16T08:36:27.715Z,97924.91
2022-12-16T08:37:47.383Z,97920.30
2022-12-16T08:39:06.667Z,97918.23
2022-12-16T08:40:35.297Z,97914.35
2022-12-16T08:41:55.770Z,97909.61
2022-12-16T08:43:15.779Z,97906.46
2022-12-16T08:44:34.815Z,97904.14
2022-12-16T08:45:54.259Z,97906.96
2022-12-16T08:47:16.908Z,97908.36
2022-12-16T08:48:36.210Z,97906.69
2022-12-16T08:49:57.905Z,97898.81
2022-12-16T08:51:23.537Z,97892.77
2022-12-16T08:52:42.976Z,97888.69
2022-12-16T08:54:02.522Z,97887.48
2022-12-16T08:55:27.672Z,97885.41
2022-12-16T08:56:49.066Z,97881.89
2022-12-16T08:58:13.649Z,97871.29
2022-12-16T08:59:32.702Z,97873.67
2022-12-16T09:00:52.072Z,97872.60
2022-12-16T09:02:12.028Z,97877.19
2022-12-16T09:03:31.908Z,97868.89
2022-12-16T09:05:29.075Z,97871.39
2022-12-16T09:06:48.527Z,97862.95
2022-12-16T09:08:08.221Z,97863.42
2022-12-16T09:09:28.601Z,97864.02
2022-12-16T09:11:19.184Z,97863.34
2022-12-16T09:12:38.654Z,97863.82
2022-12-16T09:13:58.264Z,97864.36
2022-12-16T09:15:17.241Z,97862.85
2022-12-16T09:16:36.361Z,97866.17
2022-12-16T09:17:56.524Z,97866.09
2022-12-16T09:19:15.832Z,97867.61
2022-12-16T09:20:34.625Z,97870.23
2022-12-16T09:21:54.807Z,97876.48
2022-12-16T09:23:14.757Z,97878.68
2022-12-16T09:24:33.606Z,97879.05
2022-12-16T09:25:53.022Z,97876.84
2022-12-16T09:27:15.205Z,97876.27
2022-12-16T09:28:34.042Z,97881.49
2022-12-16T09:29:53.523Z,97879.11
2022-12-16T09:31:12.652Z,97876.59
2022-12-16T09:32:31.848Z,97875.25
2022-12-16T09:33:51.249Z,97873.97
2022-12-16T09:35:13.653Z,97873.86
2022-12-16T09:36:33.808Z,97872.54
2022-12-16T09:37:52.944Z,97870.02
2022-12-16T09:39:15.175Z,97873.87
2022-12-16T09:40:36.053Z,97865.83
2022-12-16T09:42:32.618Z,97864.17
2022-12-16T09:44:38.402Z,97857.92
2022-12-16T09:46:27.730Z,97850.90
2022-12-16T09:48:12.097Z,97850.77
2022-12-16T09:50:26.103Z,97851.70
2022-12-16T09:51:47.484Z,97852.16
2022-12-16T09:53:18.700Z,97847.69
2022-12-16T09:54:46.108Z,97841.21
2022-12-16T09:56:06.568Z,97842.93
2022-12-16T09:57:27.336Z,97838.13
2022-12-16T09:58:56.609Z,97837.22
2022-12-16T10:00:22.791Z,97838.90
2022-12-16T10:01:45.048Z,97835.50
2022-12-16T10:03:09.186Z,97837.25
2022-12-16T10:04:28.683Z,97843.61
2022-12-16T10:06:13.685Z,97832.41
2022-12-16T10:07:40.739Z,97830.65
2022-12-16T10:09:13.810Z,97839.65
2022-12-16T10:10:39.718Z,97832.13
2022-12-16T10:12:20.385Z,97845.10
2022-12-16T10:13:59.217Z,97835.41
2022-12-16T10:16:02.975Z,97842.92
2022-12-16T10:17:32.471Z,97844.09
2022-12-16T10:19:28.937Z,97837.56
2022-12-16T10:20:59.271Z,97842.05
2022-12-16T10:22:33.669Z,97842.55
2022-12-16T10:24:20.422Z,97836.20
2022-12-16T10:25:47.055Z,97839.98
2022-12-16T10:27:29.380Z,97844.73
2022-12-16T10:29:03.899Z,97845.23
2022-12-16T10:30:32.890Z,97843.98
2022-12-16T10:31:55.785Z,97847.36
2022-12-16T10:33:15.944Z,97845.63
2022-12-16T10:34:45.698Z,97851.40
2022-12-16T10:36:10.835Z,97848.30
2022-12-16T10:37:52.228Z,97845.27
2022-12-16T10:39:18.524Z,97844.04
2022-12-16T10:40:45.123Z,97847.30
2022-12-16T10:42:10.432Z,97845.46
2022-12-16T10:43:38.787Z,97849.64
2022-12-16T10:45:19.833Z,97855.98
2022-12-16T10:46:46.937Z,97849.69
2022-12-16T10:48:06.223Z,97850.42
2022-12-16T10:49:33.110Z,97849.82
2022-12-16T10:50:52.562Z,97849.80
2022-12-16T10:52:41.283Z,97855.98
2022-12-16T10:54:02.762Z,97850.86
2022-12-16T10:55:47.663Z,97853.74
2022-12-16T10:57:22.670Z,97853.38
2022-12-16T10:59:01.651Z,97856.39
2022-12-16T11:00:34.073Z,97857.29
2022-12-16T11:01:53.480Z,97862.85
2022-12-16T11:03:13.811Z,97864.27
2022-12-16T11:04:48.942Z,97869.88
2022-12-16T11:06:08.841Z,97873.45
2022-12-16T11:07:44.395Z,97874.80
2022-12-16T11:09:03.603Z,97870.70
2022-12-16T11:10:42.464Z,97873.88
2022-12-16T11:12:01.810Z,97868.89
2022-12-16T11:13:42.245Z,97868.75
2022-12-16T11:15:28.642Z,97868.62
2022-12-16T11:16:49.377Z,97865.14
2022-12-16T11:18:27.544Z,97856.74
2022-12-16T11:19:48.674Z,97845.75
2022-12-16T11:21:30.266Z,97837.27
2022-12-16T11:22:49.541Z,97840.19
2022-12-16T11:24:28.125Z,97841.73
2022-12-16T11:25:47.642Z,97842.69
2022-12-16T11:27:41.180Z,97842.58
2022-12-16T11:29:00.563Z,97831.91
2022-12-16T11:30:43.451Z,97826.30
2022-12-16T11:32:03.080Z,97826.34
2022-12-16T11:34:07.369Z,97828.32
2022-12-16T11:35:40.706Z,97829.88
2022-12-16T11:37:04.000Z,97827.23
2022-12-16T11:38:42.692Z,97828.02
2022-12-16T11:40:02.880Z,97831.70
2022-12-16T11:41:25.302Z,97833.09
2022-12-16T11:42:50.717Z,97834.02
2022-12-16T11:44:13.519Z,97832.52
2022-12-16T11:45:38.907Z,97838.54
2022-12-16T11:46:58.820Z,97836.50
2022-12-16T11:48:30.469Z,97835.95
2022-12-16T11:49:52.422Z,97835.54
2022-12-16T11:51:16.707Z,97833.08
2022-12-16T11:52:40.033Z,97829.14
2022-12-16T11:54:09.789Z,97826.81
2022-12-16T11:57:22.666Z,97835.08
2022-12-16T11:59:04.520Z,97841.48
2022-12-16T12:00:25.783Z,97849.24
2022-12-16T12:01:51.441Z,97847.30
2022-12-16T12:03:40.073Z,97858.52
2022-12-16T12:05:00.440Z,97864.67
2022-12-16T12:06:48.643Z,97867.83
2022-12-16T12:08:21.224Z,97868.61
2022-12-16T12:09:45.282Z,97868.70
2022-12-16T12:11:31.675Z,97864.85
2022-12-16T12:13:07.156Z,97860.70
2022-12-16T12:14:34.266Z,97858.73
2022-12-16T12:16:19.987Z,97860.16
2022-12-16T12:17:51.885Z,97865.40
2022-12-16T12:19:21.134Z,97866.92
2022-12-16T12:20:46.581Z,97864.73
2022-12-16T12:22:33.336Z,97869.84
2022-12-16T12:23:55.480Z,97868.06
2022-12-16T12:25:35.144Z,97866.27
2022-12-16T12:27:02.794Z,97866.58
2022-12-16T12:28:31.152Z,97868.14
2022-12-16T12:30:25.194Z,97870.10
2022-12-16T12:32:18.414Z,97863.62
2022-12-16T12:34:00.679Z,97864.15
2022-12-16T12:35:43.890Z,97859.71
2022-12-16T12:37:11.088Z,97858.57
2022-12-16T12:39:16.357Z,97862.26
2022-12-16T12:41:02.996Z,97860.46
2022-12-16T12:42:32.653Z,97853.95
2022-12-16T12:44:19.784Z,97847.95
2022-12-16T12:46:27.616Z,97849.88
2022-12-16T12:47:51.842Z,97852.05
2022-12-16T12:49:28.819Z,97848.25
2022-12-16T12:51:09.112Z,97851.59
2022-12-16T12:53:07.871Z,97853.45
2022-12-16T12:54:47.078Z,97857.70
2022-12-16T12:56:25.085Z,97860.44
2022-12-16T12:57:47.046Z,97859.11
2022-12-16T12:59:11.694Z,97855.80
2022-12-16T13:00:41.361Z,97861.09
2022-12-16T13:02:02.715Z,97862.45
2022-12-16T13:03:38.914Z,97869.33
2022-12-16T13:05:00.902Z,97866.73
2022-12-16T13:06:21.513Z,97876.49
2022-12-16T13:07:41.184Z,97877.39
2022-12-16T13:09:14.350Z,97884.73
2022-12-16T13:10:43.026Z,97895.95
2022-12-16T13:12:27.335Z,97894.27
2022-12-16T13:13:52.557Z,97896.02
2022-12-16T13:15:21.698Z,97895.90
2022-12-16T13:17:02.833Z,97897.70
2022-12-16T13:18:22.281Z,97895.59
2022-12-16T13:19:48.253Z,97895.73
2022-12-16T13:21:16.656Z,97885.44
2022-12-16T13:22:51.416Z,97889.33
2022-12-16T13:24:10.873Z,97892.65
2022-12-16T13:26:07.827Z,97892.91
2022-12-16T13:27:34.261Z,97899.70
2022-12-16T13:28:58.157Z,97901.71
2022-12-16T13:30:24.247Z,97902.28
2022-12-16T13:31:47.632Z,97905.98
2022-12-16T13:33:19.772Z,97911.95
2022-12-16T13:34:48.083Z,97919.36
2022-12-16T13:36:19.028Z,97920.54
2022-12-16T13:37:45.723Z,97927.72
2022-12-16T13:39:12.486Z,97927.73
2022-12-16T13:40:40.661Z,97926.23
2022-12-16T13:42:00.812Z,97930.88
2022-12-16T13:43:23.708Z,97925.70
2022-12-16T13:45:01.780Z,97927.88
2022-12-16T13:46:24.260Z,97929.98
2022-12-16T13:47:51.249Z,97929.92
2022-12-16T13:49:10.878Z,97927.34
2022-12-16T13:51:25.341Z,97924.20
2022-12-16T13:53:12.023Z,97927.85
2022-12-16T13:54:31.591Z,97932.56
2022-12-16T13:56:15.687Z,97935.71
2022-12-16T13:57:39.230Z,97937.68
2022-12-16T13:59:04.586Z,97932.06
2022-12-16T14:00:41.515Z,97933.96
2022-12-16T14:02:12.835Z,97931.27
2022-12-16T14:04:03.284Z,97928.79
2022-12-16T14:05:38.198Z,97928.71
2022-12-16T14:06:59.293Z,97935.86
2022-12-16T14:08:18.826Z,97936.83
2022-12-16T14:09:52.689Z,97941.02
2022-12-16T14:11:19.142Z,97941.91
2022-12-16T14:13:17.057Z,97946.04
2022-12-16T14:14:47.477Z,97954.79
2022-12-16T14:16:34.152Z,97955.64
2022-12-16T14:18:05.621Z,97954.16
2022-12-16T14:19:45.995Z,97952.37
2022-12-16T14:21:21.504Z,97951.88
2022-12-16T14:22:41.414Z,97948.73
2022-12-16T14:24:31.050Z,97946.48
2022-12-16T14:25:50.930Z,97946.27
2022-12-16T14:27:10.697Z,97951.20
2022-12-16T14:28:48.171Z,97953.70
2022-12-16T14:30:07.736Z,97957.88
2022-12-16T14:31:55.236Z,97964.80
2022-12-16T14:33:14.907Z,97967.29
2022-12-16T14:34:38.906Z,97972.13
2022-12-16T14:36:08.201Z,97973.98
2022-12-16T14:37:37.054Z,97976.38
2022-12-16T14:39:05.515Z,97977.95
2022-12-16T14:40:49.597Z,97982.96
2022-12-16T14:42:09.742Z,97983.91
2022-12-16T14:43:36.861Z,97987.11
2022-12-16T14:44:56.690Z,97991.02
2022-12-16T14:46:17.013Z,97988.88
2022-12-16T14:47:40.301Z,97989.77
2022-12-16T14:49:05.492Z,97982.73
2022-12-16T14:50:54.432Z,97977.52
2022-12-16T14:52:13.684Z,97972.37
2022-12-16T14:53:37.329Z,97971.51
2022-12-16T14:55:01.878Z,97972.11
2022-12-16T14:56:33.504Z,97979.27
2022-12-16T14:57:53.551Z,97981.94
2022-12-16T14:59:31.998Z,97988.11
2022-12-16T15:00:55.162Z,97992.27
2022-12-16T15:02:30.183Z,97995.84
2022-12-16T15:04:03.407Z,98000.04
2022-12-16T15:05:25.000Z,97998.14
2022-12-16T15:06:50.623Z,97998.83
2022-12-16T15:08:11.610Z,98002.71
2022-12-16T15:09:40.594Z,98000.33
2022-12-16T15:11:01.275Z,97999.23
2022-12-16T15:12:20.813Z,97999.71
2022-12-16T15:13:41.337Z,97998.56
2022-12-16T15:15:01.209Z,98001.21
2022-12-16T15:16:23.566Z,98000.31
2022-12-16T15:18:01.077Z,97993.41
2022-12-16T15:19:22.670Z,97992.29
2022-12-16T15:20:47.700Z,97994.90
2022-12-16T15:22:07.414Z,97993.18
2022-12-16T15:23:39.790Z,97999.75
2022-12-16T15:24:59.342Z,98006.51
2022-12-16T15:26:19.583Z,98012.39
2022-12-16T15:27:39.098Z,98015.39
2022-12-16T15:29:01.768Z,98020.41
2022-12-16T15:30:42.290Z,98023.88
2022-12-16T15:32:03.721Z,98021.58
2022-12-16T15:33:24.690Z,98023.31
2022-12-16T15:34:49.804Z,98015.76
2022-12-16T15:36:09.589Z,98014.00
2022-12-16T15:37:35.484Z,98013.58
2022-12-16T15:38:54.995Z,98013.86
2022-12-16T15:40:14.267Z,98014.55
2022-12-16T15:41:55.733Z,98022.73
2022-12-16T15:43:57.471Z,98026.23
2022-12-16T15:45:17.774Z,98029.04
2022-12-16T15:46:41.790Z,98032.13
2022-12-16T15:48:01.086Z,98030.89